sensor_id;sensor_type;location;lat;lon;timestamp;pressure;altitude;pressure_sealevel;temperature;humidity
62789;BME280;66401;42.016;21.454;2023-03-20T00:00:36;98637.78;;;8.72;49.96
62789;BME280;66401;42.016;21.454;2023-03-20T00:03:02;98638.72;;;8.79;49.53
62789;BME280;66401;42.016;21.454;2023-03-20T00:05:30;98642.38;;;8.62;50.07
62789;BME280;66401;42.016;21.454;2023-03-20T00:07:56;98630.38;;;8.61;50.48
62789;BME280;66401;42.016;21.454;2023-03-20T00:10:27;98610.72;;;8.58;50.17
62789;BME280;66401;42.016;21.454;2023-03-20T00:12:54;98632.34;;;8.82;49.85
62789;BME280;66401;42.016;21.454;2023-03-20T00:17:54;98633.03;;;8.76;49.54
62789;BME280;66401;42.016;21.454;2023-03-20T00:20:20;98642.63;;;8.75;49.77
62789;BME280;66401;42.016;21.454;2023-03-20T00:22:46;98633.16;;;8.82;49.44
62789;BME280;66401;42.016;21.454;2023-03-20T00:25:20;98629.75;;;8.82;49.52
62789;BME280;66401;42.016;21.454;2023-03-20T00:27:46;98591.38;;;8.69;50.00
62789;BME280;66401;42.016;21.454;2023-03-20T00:32:43;98606.25;;;8.75;49.71
62789;BME280;66401;42.016;21.454;2023-03-20T00:35:20;98627.16;;;8.82;50.37
62789;BME280;66401;42.016;21.454;2023-03-20T00:37:47;98629.00;;;8.73;49.89
62789;BME280;66401;42.016;21.454;2023-03-20T00:40:13;98627.00;;;8.52;50.61
62789;BME280;66401;42.016;21.454;2023-03-20T00:42:39;98614.41;;;8.41;50.14
62789;BME280;66401;42.016;21.454;2023-03-20T00:45:05;98620.00;;;8.53;49.88
62789;BME280;66401;42.016;21.454;2023-03-20T00:47:36;98611.13;;;8.39;50.56
62789;BME280;66401;42.016;21.454;2023-03-20T00:50:12;98615.47;;;8.55;50.26
62789;BME280;66401;42.016;21.454;2023-03-20T00:52:39;98609.00;;;8.51;50.17
62789;BME280;66401;42.016;21.454;2023-03-20T00:55:05;98619.16;;;8.60;48.77
62789;BME280;66401;42.016;21.454;2023-03-20T01:00:22;98622.00;;;8.43;49.67
62789;BME280;66401;42.016;21.454;2023-03-20T01:02:51;98633.38;;;8.33;49.06
62789;BME280;66401;42.016;21.454;2023-03-20T01:05:18;98626.25;;;8.36;48.22
62789;BME280;66401;42.016;21.454;2023-03-20T01:07:44;98612.47;;;8.27;47.81
62789;BME280;66401;42.016;21.454;2023-03-20T01:10:10;98628.53;;;8.30;48.25
62789;BME280;66401;42.016;21.454;2023-03-20T01:12:38;98627.91;;;8.20;48.70
62789;BME280;66401;42.016;21.454;2023-03-20T01:17:43;98626.88;;;8.29;47.98
62789;BME280;66401;42.016;21.454;2023-03-20T01:20:24;98623.97;;;8.41;47.90
62789;BME280;66401;42.016;21.454;2023-03-20T01:22:50;98620.41;;;8.42;48.65
62789;BME280;66401;42.016;21.454;2023-03-20T01:25:16;98601.41;;;8.33;48.69
62789;BME280;66401;42.016;21.454;2023-03-20T01:27:48;98611.31;;;8.38;48.16
62789;BME280;66401;42.016;21.454;2023-03-20T01:30:18;98618.47;;;8.27;48.75
62789;BME280;66401;42.016;21.454;2023-03-20T01:32:45;98588.34;;;8.10;49.18
62789;BME280;66401;42.016;21.454;2023-03-20T01:35:13;98619.28;;;8.36;49.17
62789;BME280;66401;42.016;21.454;2023-03-20T01:37:40;98606.50;;;8.18;49.43
62789;BME280;66401;42.016;21.454;2023-03-20T01:42:42;98628.72;;;8.21;49.46
62789;BME280;66401;42.016;21.454;2023-03-20T01:45:20;98631.81;;;8.16;49.66
62789;BME280;66401;42.016;21.454;2023-03-20T01:47:46;98628.56;;;8.14;49.40
62789;BME280;66401;42.016;21.454;2023-03-20T01:53:16;98629.56;;;8.13;50.08
62789;BME280;66401;42.016;21.454;2023-03-20T01:55:44;98633.13;;;8.12;49.19
62789;BME280;66401;42.016;21.454;2023-03-20T01:58:18;98636.22;;;7.99;50.05
62789;BME280;66401;42.016;21.454;2023-03-20T02:00:48;98626.56;;;7.77;49.71
62789;BME280;66401;42.016;21.454;2023-03-20T02:03:15;98630.28;;;7.83;49.13
62789;BME280;66401;42.016;21.454;2023-03-20T02:05:42;98619.91;;;7.74;49.20
62789;BME280;66401;42.016;21.454;2023-03-20T02:10:40;98638.19;;;7.81;49.22
62789;BME280;66401;42.016;21.454;2023-03-20T02:13:06;98632.38;;;7.71;49.74
62789;BME280;66401;42.016;21.454;2023-03-20T02:15:33;98601.50;;;7.45;50.36
62789;BME280;66401;42.016;21.454;2023-03-20T02:18:00;98635.13;;;7.78;50.19
62789;BME280;66401;42.016;21.454;2023-03-20T02:26:11;98641.78;;;7.72;49.83
62789;BME280;66401;42.016;21.454;2023-03-20T02:48:36;98639.34;;;7.62;50.95
62789;BME280;66401;42.016;21.454;2023-03-20T02:54:12;98638.72;;;7.52;52.10
62789;BME280;66401;42.016;21.454;2023-03-20T02:57:10;98632.09;;;7.41;52.22
62789;BME280;66401;42.016;21.454;2023-03-20T03:02:38;98630.97;;;7.44;52.51
62789;BME280;66401;42.016;21.454;2023-03-20T03:05:21;98626.44;;;7.38;51.86
62789;BME280;66401;42.016;21.454;2023-03-20T03:07:51;98629.31;;;7.43;52.83
62789;BME280;66401;42.016;21.454;2023-03-20T03:10:23;98640.03;;;7.40;52.63
62789;BME280;66401;42.016;21.454;2023-03-20T03:12:52;98639.69;;;7.51;52.71
62789;BME280;66401;42.016;21.454;2023-03-20T03:15:27;98628.53;;;7.42;51.86
62789;BME280;66401;42.016;21.454;2023-03-20T03:17:57;98646.69;;;7.34;53.25
62789;BME280;66401;42.016;21.454;2023-03-20T03:20:32;98637.13;;;7.27;53.02
62789;BME280;66401;42.016;21.454;2023-03-20T03:23:00;98623.84;;;7.30;52.14
62789;BME280;66401;42.016;21.454;2023-03-20T03:25:33;98608.44;;;7.20;53.51
62789;BME280;66401;42.016;21.454;2023-03-20T03:28:07;98641.16;;;7.37;52.83
62789;BME280;66401;42.016;21.454;2023-03-20T03:31:04;98639.22;;;7.31;52.54
62789;BME280;66401;42.016;21.454;2023-03-20T03:33:33;98630.31;;;7.17;53.31
62789;BME280;66401;42.016;21.454;2023-03-20T03:36:24;98605.03;;;7.11;53.24
62789;BME280;66401;42.016;21.454;2023-03-20T03:44:14;98622.72;;;7.24;54.05
62789;BME280;66401;42.016;21.454;2023-03-20T03:47:03;98623.34;;;7.26;54.05
62789;BME280;66401;42.016;21.454;2023-03-20T03:49:34;98630.16;;;7.27;53.98
62789;BME280;66401;42.016;21.454;2023-03-20T03:52:09;98630.97;;;7.28;53.70
62789;BME280;66401;42.016;21.454;2023-03-20T03:55:02;98623.34;;;7.18;53.34
62789;BME280;66401;42.016;21.454;2023-03-20T03:57:56;98614.13;;;7.07;54.51
62789;BME280;66401;42.016;21.454;2023-03-20T04:00:25;98638.72;;;7.20;54.10
62789;BME280;66401;42.016;21.454;2023-03-20T04:02:56;98623.53;;;7.25;53.35
62789;BME280;66401;42.016;21.454;2023-03-20T04:05:27;98621.56;;;7.18;53.06
62789;BME280;66401;42.016;21.454;2023-03-20T04:07:58;98596.94;;;6.98;53.54
62789;BME280;66401;42.016;21.454;2023-03-20T04:10:25;98623.81;;;7.13;54.78
62789;BME280;66401;42.016;21.454;2023-03-20T04:12:50;98619.44;;;6.98;54.51
62789;BME280;66401;42.016;21.454;2023-03-20T04:15:16;98621.25;;;7.05;54.33
62789;BME280;66401;42.016;21.454;2023-03-20T04:17:43;98626.06;;;6.92;54.85
62789;BME280;66401;42.016;21.454;2023-03-20T04:20:10;98621.72;;;7.01;54.11
62789;BME280;66401;42.016;21.454;2023-03-20T04:22:35;98620.91;;;7.00;54.95
62789;BME280;66401;42.016;21.454;2023-03-20T04:25:03;98629.00;;;7.13;54.42
62789;BME280;66401;42.016;21.454;2023-03-20T04:27:29;98625.75;;;7.11;54.29
62789;BME280;66401;42.016;21.454;2023-03-20T04:29:54;98609.09;;;6.98;54.38
62789;BME280;66401;42.016;21.454;2023-03-20T04:32:21;98623.34;;;7.10;54.23
62789;BME280;66401;42.016;21.454;2023-03-20T04:34:46;98606.00;;;7.02;54.26
62789;BME280;66401;42.016;21.454;2023-03-20T04:37:12;98632.25;;;7.15;54.67
62789;BME280;66401;42.016;21.454;2023-03-20T04:39:37;98633.72;;;7.18;54.05
62789;BME280;66401;42.016;21.454;2023-03-20T04:42:04;98618.31;;;7.00;54.13
62789;BME280;66401;42.016;21.454;2023-03-20T04:44:30;98628.66;;;7.00;54.89
62789;BME280;66401;42.016;21.454;2023-03-20T04:46:56;98593.84;;;6.78;54.27
62789;BME280;66401;42.016;21.454;2023-03-20T04:49:21;98625.25;;;6.92;54.64
62789;BME280;66401;42.016;21.454;2023-03-20T04:51:47;98618.78;;;6.87;55.26
62789;BME280;66401;42.016;21.454;2023-03-20T04:54:12;98631.91;;;7.02;55.04
62789;BME280;66401;42.016;21.454;2023-03-20T04:56:38;98640.34;;;6.96;54.30
62789;BME280;66401;42.016;21.454;2023-03-20T04:59:03;98596.56;;;6.60;54.97
62789;BME280;66401;42.016;21.454;2023-03-20T05:01:29;98641.31;;;6.95;55.67
62789;BME280;66401;42.016;21.454;2023-03-20T05:03:54;98647.16;;;7.05;54.36
62789;BME280;66401;42.016;21.454;2023-03-20T05:06:29;98643.59;;;7.06;54.80
62789;BME280;66401;42.016;21.454;2023-03-20T05:08:56;98651.66;;;7.11;55.08
62789;BME280;66401;42.016;21.454;2023-03-20T05:11:24;98650.00;;;6.94;54.54
62789;BME280;66401;42.016;21.454;2023-03-20T05:13:50;98657.16;;;7.00;54.47
62789;BME280;66401;42.016;21.454;2023-03-20T05:16:16;98651.81;;;7.02;54.79
62789;BME280;66401;42.016;21.454;2023-03-20T05:18:42;98663.66;;;7.12;55.03
62789;BME280;66401;42.016;21.454;2023-03-20T05:21:08;98669.47;;;7.06;55.07
62789;BME280;66401;42.016;21.454;2023-03-20T05:23:34;98665.28;;;7.05;55.56
62789;BME280;66401;42.016;21.454;2023-03-20T05:26:00;98681.31;;;7.17;55.30
62789;BME280;66401;42.016;21.454;2023-03-20T05:28:27;98679.03;;;7.06;56.13
62789;BME280;66401;42.016;21.454;2023-03-20T05:30:52;98678.06;;;7.15;55.24
62789;BME280;66401;42.016;21.454;2023-03-20T05:33:18;98674.50;;;7.08;54.26
62789;BME280;66401;42.016;21.454;2023-03-20T05:35:43;98678.22;;;7.22;55.05
62789;BME280;66401;42.016;21.454;2023-03-20T05:38:09;98677.94;;;7.25;55.00
62789;BME280;66401;42.016;21.454;2023-03-20T05:40:35;98690.88;;;7.33;54.37
62789;BME280;66401;42.016;21.454;2023-03-20T05:43:01;98685.84;;;7.23;54.61
62789;BME280;66401;42.016;21.454;2023-03-20T05:45:27;98682.78;;;7.28;54.69
62789;BME280;66401;42.016;21.454;2023-03-20T05:47:52;98664.81;;;7.26;53.72
62789;BME280;66401;42.016;21.454;2023-03-20T05:50:18;98643.56;;;6.98;55.15
62789;BME280;66401;42.016;21.454;2023-03-20T05:52:47;98683.44;;;7.38;54.25
62789;BME280;66401;42.016;21.454;2023-03-20T05:55:13;98681.84;;;7.53;54.24
62789;BME280;66401;42.016;21.454;2023-03-20T05:57:39;98678.56;;;7.59;54.49
62789;BME280;66401;42.016;21.454;2023-03-20T06:00:05;98668.53;;;7.64;54.03
62789;BME280;66401;42.016;21.454;2023-03-20T06:02:30;98674.38;;;7.74;53.58
62789;BME280;66401;42.016;21.454;2023-03-20T06:04:56;98677.59;;;7.77;54.11
62789;BME280;66401;42.016;21.454;2023-03-20T06:07:22;98676.63;;;7.86;53.44
62789;BME280;66401;42.016;21.454;2023-03-20T06:09:47;98678.56;;;7.92;53.77
62789;BME280;66401;42.016;21.454;2023-03-20T06:12:13;98684.69;;;7.99;53.23
62789;BME280;66401;42.016;21.454;2023-03-20T06:14:38;98672.06;;;7.96;53.52
62789;BME280;66401;42.016;21.454;2023-03-20T06:17:04;98672.53;;;8.08;52.80
62789;BME280;66401;42.016;21.454;2023-03-20T06:19:30;98673.34;;;8.08;53.18
62789;BME280;66401;42.016;21.454;2023-03-20T06:21:55;98667.50;;;8.14;52.55
62789;BME280;66401;42.016;21.454;2023-03-20T06:24:21;98668.75;;;8.26;53.09
62789;BME280;66401;42.016;21.454;2023-03-20T06:26:46;98664.09;;;8.14;52.80
62789;BME280;66401;42.016;21.454;2023-03-20T06:29:12;98670.75;;;8.08;52.31
62789;BME280;66401;42.016;21.454;2023-03-20T06:31:37;98674.31;;;8.07;53.44
62789;BME280;66401;42.016;21.454;2023-03-20T06:34:03;98673.31;;;8.16;53.02
62789;BME280;66401;42.016;21.454;2023-03-20T06:36:29;98671.84;;;8.22;52.57
62789;BME280;66401;42.016;21.454;2023-03-20T06:38:55;98670.53;;;8.26;53.21
62789;BME280;66401;42.016;21.454;2023-03-20T06:41:21;98670.38;;;8.36;53.61
62789;BME280;66401;42.016;21.454;2023-03-20T06:43:46;98672.56;;;8.55;52.66
62789;BME280;66401;42.016;21.454;2023-03-20T06:46:12;98675.91;;;8.72;52.90
62789;BME280;66401;42.016;21.454;2023-03-20T06:48:37;98682.00;;;8.87;52.70
62789;BME280;66401;42.016;21.454;2023-03-20T06:51:03;98683.69;;;9.03;52.15
62789;BME280;66401;42.016;21.454;2023-03-20T06:53:29;98675.56;;;9.06;50.04
62789;BME280;66401;42.016;21.454;2023-03-20T06:55:54;98683.94;;;9.16;49.66
62789;BME280;66401;42.016;21.454;2023-03-20T06:58:20;98677.06;;;9.23;50.36
62789;BME280;66401;42.016;21.454;2023-03-20T07:00:45;98668.28;;;9.24;51.29
62789;BME280;66401;42.016;21.454;2023-03-20T07:03:11;98674.38;;;9.39;50.95
62789;BME280;66401;42.016;21.454;2023-03-20T07:05:37;98672.56;;;9.40;51.37
62789;BME280;66401;42.016;21.454;2023-03-20T07:08:05;98661.63;;;9.44;50.36
62789;BME280;66401;42.016;21.454;2023-03-20T07:10:32;98671.66;;;9.56;49.93
62789;BME280;66401;42.016;21.454;2023-03-20T07:12:58;98654.75;;;9.52;49.70
62789;BME280;66401;42.016;21.454;2023-03-20T07:15:25;98673.16;;;9.65;50.51
62789;BME280;66401;42.016;21.454;2023-03-20T07:17:52;98668.97;;;9.64;50.24
62789;BME280;66401;42.016;21.454;2023-03-20T07:20:18;98656.06;;;9.56;50.17
62789;BME280;66401;42.016;21.454;2023-03-20T07:22:43;98655.88;;;9.72;51.55
62789;BME280;66401;42.016;21.454;2023-03-20T07:25:09;98661.56;;;9.75;50.50
62789;BME280;66401;42.016;21.454;2023-03-20T07:27:35;98657.50;;;9.73;50.29
62789;BME280;66401;42.016;21.454;2023-03-20T07:30:03;98660.69;;;9.98;49.84
62789;BME280;66401;42.016;21.454;2023-03-20T07:32:29;98667.72;;;10.42;48.67
62789;BME280;66401;42.016;21.454;2023-03-20T07:34:55;98664.72;;;11.32;46.82
62789;BME280;66401;42.016;21.454;2023-03-20T07:37:20;98662.47;;;12.27;44.05
62789;BME280;66401;42.016;21.454;2023-03-20T07:39:46;98669.00;;;13.06;42.56
62789;BME280;66401;42.016;21.454;2023-03-20T07:42:11;98669.41;;;13.09;42.07
62789;BME280;66401;42.016;21.454;2023-03-20T07:44:38;98673.50;;;13.25;41.26
62789;BME280;66401;42.016;21.454;2023-03-20T07:47:04;98668.69;;;13.88;40.82
62789;BME280;66401;42.016;21.454;2023-03-20T07:49:30;98650.41;;;15.04;38.57
62789;BME280;66401;42.016;21.454;2023-03-20T07:51:56;98666.16;;;15.92;36.78
62789;BME280;66401;42.016;21.454;2023-03-20T07:54:22;98668.41;;;17.29;34.68
62789;BME280;66401;42.016;21.454;2023-03-20T07:56:48;98658.44;;;17.84;32.74
62789;BME280;66401;42.016;21.454;2023-03-20T07:59:15;98670.13;;;18.87;31.65
62789;BME280;66401;42.016;21.454;2023-03-20T08:01:40;98660.69;;;17.69;33.71
62789;BME280;66401;42.016;21.454;2023-03-20T08:04:06;98672.06;;;18.05;32.81
62789;BME280;66401;42.016;21.454;2023-03-20T08:06:31;98659.97;;;18.96;30.52
62789;BME280;66401;42.016;21.454;2023-03-20T08:08:57;98657.31;;;18.67;31.32
62789;BME280;66401;42.016;21.454;2023-03-20T08:11:23;98648.22;;;18.35;31.14
62789;BME280;66401;42.016;21.454;2023-03-20T08:13:48;98653.84;;;18.15;33.33
62789;BME280;66401;42.016;21.454;2023-03-20T08:16:14;98642.34;;;18.84;32.37
62789;BME280;66401;42.016;21.454;2023-03-20T08:18:39;98642.75;;;19.22;31.22
62789;BME280;66401;42.016;21.454;2023-03-20T08:21:06;98652.00;;;19.07;31.39
62789;BME280;66401;42.016;21.454;2023-03-20T08:23:32;98645.50;;;19.94;28.93
62789;BME280;66401;42.016;21.454;2023-03-20T08:25:58;98645.22;;;20.12;29.08
62789;BME280;66401;42.016;21.454;2023-03-20T08:28:23;98640.06;;;18.36;30.95
62789;BME280;66401;42.016;21.454;2023-03-20T08:30:50;98634.81;;;18.13;31.50
62789;BME280;66401;42.016;21.454;2023-03-20T08:33:16;98645.78;;;17.39;33.08
62789;BME280;66401;42.016;21.454;2023-03-20T08:35:42;98630.72;;;16.86;32.30
62789;BME280;66401;42.016;21.454;2023-03-20T08:38:12;98624.63;;;16.56;34.11
62789;BME280;66401;42.016;21.454;2023-03-20T08:40:42;98629.84;;;17.34;33.29
62789;BME280;66401;42.016;21.454;2023-03-20T08:43:08;98620.53;;;17.08;32.88
62789;BME280;66401;42.016;21.454;2023-03-20T08:45:33;98623.97;;;16.06;34.97
62789;BME280;66401;42.016;21.454;2023-03-20T08:47:59;98616.75;;;16.01;35.48
62789;BME280;66401;42.016;21.454;2023-03-20T08:50:24;98628.41;;;16.78;34.11
62789;BME280;66401;42.016;21.454;2023-03-20T08:52:50;98614.72;;;16.03;33.55
62789;BME280;66401;42.016;21.454;2023-03-20T08:55:17;98623.31;;;16.28;33.62
62789;BME280;66401;42.016;21.454;2023-03-20T08:57:43;98627.56;;;16.29;33.41
62789;BME280;66401;42.016;21.454;2023-03-20T09:00:12;98626.47;;;16.19;33.45
62789;BME280;66401;42.016;21.454;2023-03-20T09:02:39;98625.44;;;16.20;33.23
62789;BME280;66401;42.016;21.454;2023-03-20T09:05:05;98626.94;;;15.91;33.42
62789;BME280;66401;42.016;21.454;2023-03-20T09:07:31;98629.25;;;15.81;34.06
62789;BME280;66401;42.016;21.454;2023-03-20T09:09:57;98613.41;;;16.12;33.65
62789;BME280;66401;42.016;21.454;2023-03-20T09:12:22;98599.09;;;16.26;34.32
62789;BME280;66401;42.016;21.454;2023-03-20T09:14:48;98606.22;;;16.38;34.16
62789;BME280;66401;42.016;21.454;2023-03-20T09:17:14;98610.63;;;16.44;33.99
62789;BME280;66401;42.016;21.454;2023-03-20T09:19:39;98616.72;;;16.56;32.85
62789;BME280;66401;42.016;21.454;2023-03-20T09:22:11;98609.19;;;16.59;33.27
62789;BME280;66401;42.016;21.454;2023-03-20T09:24:37;98600.91;;;16.44;34.30
62789;BME280;66401;42.016;21.454;2023-03-20T09:27:02;98585.50;;;16.11;33.85
62789;BME280;66401;42.016;21.454;2023-03-20T09:29:28;98601.13;;;16.24;33.55
62789;BME280;66401;42.016;21.454;2023-03-20T09:31:54;98586.81;;;16.39;34.54
62789;BME280;66401;42.016;21.454;2023-03-20T09:34:19;98585.41;;;16.54;34.67
62789;BME280;66401;42.016;21.454;2023-03-20T09:36:45;98584.25;;;17.10;34.60
62789;BME280;66401;42.016;21.454;2023-03-20T09:39:10;98558.22;;;16.12;34.91
62789;BME280;66401;42.016;21.454;2023-03-20T09:41:36;98569.69;;;16.48;34.49
62789;BME280;66401;42.016;21.454;2023-03-20T09:44:11;98577.22;;;16.93;32.73
62789;BME280;66401;42.016;21.454;2023-03-20T09:51:59;98557.53;;;17.72;33.06
62789;BME280;66401;42.016;21.454;2023-03-20T09:54:32;98550.31;;;17.79;31.58
62789;BME280;66401;42.016;21.454;2023-03-20T09:57:01;98548.81;;;17.71;32.01
62789;BME280;66401;42.016;21.454;2023-03-20T09:59:29;98541.84;;;17.77;31.22
62789;BME280;66401;42.016;21.454;2023-03-20T10:02:03;98539.06;;;17.95;32.11
62789;BME280;66401;42.016;21.454;2023-03-20T10:04:31;98516.03;;;17.91;30.65
62789;BME280;66401;42.016;21.454;2023-03-20T10:06:57;98525.19;;;18.00;31.59
62789;BME280;66401;42.016;21.454;2023-03-20T10:09:25;98530.72;;;17.87;30.00
62789;BME280;66401;42.016;21.454;2023-03-20T10:12:02;98523.66;;;18.16;30.54
62789;BME280;66401;42.016;21.454;2023-03-20T10:17:50;98521.75;;;19.69;28.67
62789;BME280;66401;42.016;21.454;2023-03-20T10:20:37;98510.03;;;19.48;27.95
62789;BME280;66401;42.016;21.454;2023-03-20T10:23:41;98526.50;;;19.89;28.26
62789;BME280;66401;42.016;21.454;2023-03-20T10:26:14;98523.25;;;21.49;27.29
62789;BME280;66401;42.016;21.454;2023-03-20T10:29:06;98521.38;;;21.44;25.42
62789;BME280;66401;42.016;21.454;2023-03-20T10:42:32;98489.97;;;24.22;23.44
62789;BME280;66401;42.016;21.454;2023-03-20T10:47:33;98475.66;;;25.50;20.80
62789;BME280;66401;42.016;21.454;2023-03-20T10:50:03;98477.97;;;25.32;22.33
62789;BME280;66401;42.016;21.454;2023-03-20T10:52:33;98474.47;;;26.04;20.13
62789;BME280;66401;42.016;21.454;2023-03-20T10:57:30;98473.88;;;25.40;20.73
62789;BME280;66401;42.016;21.454;2023-03-20T10:59:58;98463.94;;;25.46;21.45
62789;BME280;66401;42.016;21.454;2023-03-20T11:02:30;98467.81;;;25.34;21.23
62789;BME280;66401;42.016;21.454;2023-03-20T11:04:59;98452.50;;;26.82;20.16
62789;BME280;66401;42.016;21.454;2023-03-20T11:07:34;98457.28;;;25.48;20.82
62789;BME280;66401;42.016;21.454;2023-03-20T11:12:42;98426.84;;;25.49;21.50
62789;BME280;66401;42.016;21.454;2023-03-20T11:15:30;98436.28;;;28.97;18.49
62789;BME280;66401;42.016;21.454;2023-03-20T11:18:05;98424.53;;;29.15;18.17
62789;BME280;66401;42.016;21.454;2023-03-20T11:20:44;98419.72;;;30.09;17.61
62789;BME280;66401;42.016;21.454;2023-03-20T11:23:15;98409.44;;;30.28;16.66
62789;BME280;66401;42.016;21.454;2023-03-20T11:25:59;98401.06;;;28.22;19.21
62789;BME280;66401;42.016;21.454;2023-03-20T11:28:37;98398.75;;;28.52;19.27
62789;BME280;66401;42.016;21.454;2023-03-20T11:33:41;98374.66;;;27.30;21.02
62789;BME280;66401;42.016;21.454;2023-03-20T11:36:31;98377.81;;;27.73;20.09
62789;BME280;66401;42.016;21.454;2023-03-20T11:39:06;98371.44;;;26.40;21.39
62789;BME280;66401;42.016;21.454;2023-03-20T11:49:26;98337.34;;;22.64;24.66
62789;BME280;66401;42.016;21.454;2023-03-20T11:51:53;98329.91;;;22.71;24.06
62789;BME280;66401;42.016;21.454;2023-03-20T11:54:21;98319.25;;;22.76;24.92
62789;BME280;66401;42.016;21.454;2023-03-20T11:56:57;98326.47;;;21.94;25.17
62789;BME280;66401;42.016;21.454;2023-03-20T11:59:41;98309.00;;;21.20;27.24
62789;BME280;66401;42.016;21.454;2023-03-20T12:02:17;98308.53;;;21.28;26.01
62789;BME280;66401;42.016;21.454;2023-03-20T12:04:45;98309.00;;;21.15;26.30
62789;BME280;66401;42.016;21.454;2023-03-20T12:07:26;98302.63;;;21.06;26.78
62789;BME280;66401;42.016;21.454;2023-03-20T12:10:07;98309.09;;;21.40;27.10
62789;BME280;66401;42.016;21.454;2023-03-20T12:12:52;98287.06;;;20.67;26.83
62789;BME280;66401;42.016;21.454;2023-03-20T12:15:24;98294.94;;;20.57;26.11
62789;BME280;66401;42.016;21.454;2023-03-20T12:20:53;98287.66;;;20.05;27.28
62789;BME280;66401;42.016;21.454;2023-03-20T12:23:31;98271.41;;;20.23;27.73
62789;BME280;66401;42.016;21.454;2023-03-20T12:34:18;98266.81;;;20.46;26.85
62789;BME280;66401;42.016;21.454;2023-03-20T12:36:46;98255.50;;;20.18;27.09
62789;BME280;66401;42.016;21.454;2023-03-20T12:39:19;98256.66;;;19.68;27.17
62789;BME280;66401;42.016;21.454;2023-03-20T12:58:05;98233.25;;;20.14;26.23
62789;BME280;66401;42.016;21.454;2023-03-20T13:00:36;98193.38;;;19.79;25.35
62789;BME280;66401;42.016;21.454;2023-03-20T13:13:55;98229.69;;;20.36;26.74
62789;BME280;66401;42.016;21.454;2023-03-20T13:16:47;98220.69;;;20.32;24.50
62789;BME280;66401;42.016;21.454;2023-03-20T13:19:24;98215.38;;;19.89;25.43
62789;BME280;66401;42.016;21.454;2023-03-20T13:22:05;98194.06;;;20.06;25.58
62789;BME280;66401;42.016;21.454;2023-03-20T13:24:40;98204.03;;;19.94;24.09
62789;BME280;66401;42.016;21.454;2023-03-20T13:30:34;98209.09;;;20.00;25.54
62789;BME280;66401;42.016;21.454;2023-03-20T13:38:30;98177.66;;;19.99;26.60
62789;BME280;66401;42.016;21.454;2023-03-20T13:41:01;98177.91;;;20.02;24.86
62789;BME280;66401;42.016;21.454;2023-03-20T13:43:29;98178.94;;;19.96;26.36
62789;BME280;66401;42.016;21.454;2023-03-20T13:46:05;98173.88;;;19.90;25.22
62789;BME280;66401;42.016;21.454;2023-03-20T13:48:43;98173.81;;;19.80;24.88
62789;BME280;66401;42.016;21.454;2023-03-20T13:51:21;98180.22;;;19.89;25.19
62789;BME280;66401;42.016;21.454;2023-03-20T13:56:47;98169.59;;;19.84;25.20
62789;BME280;66401;42.016;21.454;2023-03-20T14:05:21;98163.88;;;19.97;25.61
62789;BME280;66401;42.016;21.454;2023-03-20T14:07:49;98152.81;;;20.00;25.64
62789;BME280;66401;42.016;21.454;2023-03-20T14:12:58;98159.53;;;19.81;25.91
62789;BME280;66401;42.016;21.454;2023-03-20T14:15:33;98140.50;;;19.79;25.77
62789;BME280;66401;42.016;21.454;2023-03-20T14:18:14;98124.72;;;19.89;25.93
62789;BME280;66401;42.016;21.454;2023-03-20T14:20:42;98132.59;;;19.84;27.82
62789;BME280;66401;42.016;21.454;2023-03-20T14:23:20;98116.69;;;19.73;26.65
62789;BME280;66401;42.016;21.454;2023-03-20T14:25:53;98131.06;;;19.56;26.62
62789;BME280;66401;42.016;21.454;2023-03-20T14:30:47;98119.19;;;19.58;27.18
62789;BME280;66401;42.016;21.454;2023-03-20T14:38:32;98111.84;;;19.60;27.08
62789;BME280;66401;42.016;21.454;2023-03-20T14:41:22;98104.41;;;19.57;27.01
62789;BME280;66401;42.016;21.454;2023-03-20T14:48:52;98108.97;;;19.35;26.40
62789;BME280;66401;42.016;21.454;2023-03-20T14:54:21;98114.31;;;19.45;27.34
62789;BME280;66401;42.016;21.454;2023-03-20T14:56:39;98097.81;;;19.28;26.80
62789;BME280;66401;42.016;21.454;2023-03-20T14:59:09;98096.28;;;19.37;27.25
62789;BME280;66401;42.016;21.454;2023-03-20T15:01:44;98081.56;;;19.41;27.29
62789;BME280;66401;42.016;21.454;2023-03-20T15:09:34;98083.56;;;19.29;26.93
62789;BME280;66401;42.016;21.454;2023-03-20T15:12:02;98093.38;;;19.33;29.16
62789;BME280;66401;42.016;21.454;2023-03-20T15:14:34;98077.72;;;19.22;28.46
62789;BME280;66401;42.016;21.454;2023-03-20T15:17:02;98077.53;;;19.01;31.67
62789;BME280;66401;42.016;21.454;2023-03-20T15:19:28;98088.03;;;18.96;33.43
62789;BME280;66401;42.016;21.454;2023-03-20T15:21:56;98070.53;;;18.90;31.56
62789;BME280;66401;42.016;21.454;2023-03-20T15:24:24;98080.03;;;18.86;31.88
62789;BME280;66401;42.016;21.454;2023-03-20T15:26:55;98083.59;;;18.75;32.25
62789;BME280;66401;42.016;21.454;2023-03-20T15:29:22;98092.56;;;18.74;31.39
62789;BME280;66401;42.016;21.454;2023-03-20T15:32:06;98095.16;;;18.69;31.39
62789;BME280;66401;42.016;21.454;2023-03-20T15:34:31;98092.44;;;18.64;32.38
62789;BME280;66401;42.016;21.454;2023-03-20T15:36:59;98093.47;;;18.63;31.84
62789;BME280;66401;42.016;21.454;2023-03-20T15:39:28;98091.81;;;18.56;33.79
62789;BME280;66401;42.016;21.454;2023-03-20T15:42:13;98099.66;;;18.51;32.30
62789;BME280;66401;42.016;21.454;2023-03-20T15:44:42;98081.09;;;18.41;33.41
62789;BME280;66401;42.016;21.454;2023-03-20T15:49:36;98099.97;;;18.33;32.42
62789;BME280;66401;42.016;21.454;2023-03-20T15:52:14;98090.34;;;18.22;33.71
62789;BME280;66401;42.016;21.454;2023-03-20T15:54:43;98080.22;;;18.14;33.23
62789;BME280;66401;42.016;21.454;2023-03-20T15:57:15;98079.38;;;18.08;33.59
62789;BME280;66401;42.016;21.454;2023-03-20T15:59:43;98088.00;;;18.03;34.09
62789;BME280;66401;42.016;21.454;2023-03-20T16:02:10;98083.91;;;17.91;35.19